Time;durP1;ratioP1;P1;durP2;ratioP2;P2;SDS_P1;SDS_P2;PMS_P1;PMS_P2;Temp;Humidity;BMP_temperature;BMP_pressure;BME280_temperature;BME280_humidity;BME280_pressure;Samples;Min_cycle;Max_cycle;Signal;HPM_P1;HPM_P2
2023/11/16 00:01:28;;;;;;;8.70;1.45;;;8.60;99.90;;;;;;5006157;28;20071;-74
2023/11/16 00:03:54;;;;;;;9.10;1.50;;;8.60;99.90;;;;;;4984700;28;20049;-75
2023/11/16 00:06:20;;;;;;;10.57;1.42;;;8.60;99.90;;;;;;5003757;28;20045;-75
2023/11/16 00:08:46;;;;;;;9.98;1.52;;;8.60;99.90;;;;;;5008459;28;20399;-74
2023/11/16 00:11:11;;;;;;;7.03;1.40;;;8.60;99.90;;;;;;5009968;28;20049;-83
2023/11/16 00:13:37;;;;;;;7.18;1.17;;;8.60;99.90;;;;;;4993338;28;20144;-82
2023/11/16 00:16:04;;;;;;;7.55;1.63;;;8.60;99.90;;;;;;5012351;28;20135;-83
2023/11/16 00:18:34;;;;;;;11.73;1.50;;;8.50;99.90;;;;;;5005201;28;20042;-82
2023/11/16 00:21:00;;;;;;;10.32;1.55;;;8.50;99.90;;;;;;4987276;28;20079;-74
2023/11/16 00:23:25;;;;;;;8.27;1.77;;;8.50;99.90;;;;;;4990592;28;20132;-74
2023/11/16 00:25:51;;;;;;;8.10;1.30;;;8.40;99.90;;;;;;4994146;28;20030;-74
2023/11/16 00:28:26;;;;;;;8.98;1.67;;;8.50;99.90;;;;;;5006071;28;20069;-75
2023/11/16 00:30:53;;;;;;;9.60;1.70;;;8.40;99.90;;;;;;5003029;28;20049;-74
2023/11/16 00:33:18;;;;;;;7.85;1.33;;;8.40;99.90;;;;;;5005369;28;20051;-74
2023/11/16 00:35:45;;;;;;;9.85;1.80;;;8.50;99.90;;;;;;4992485;28;20037;-74
2023/11/16 00:38:13;;;;;;;8.38;1.40;;;8.50;99.90;;;;;;5015626;28;20061;-74
2023/11/16 00:40:39;;;;;;;8.07;1.50;;;8.50;99.90;;;;;;4991896;28;20037;-74
2023/11/16 00:43:05;;;;;;;9.75;1.30;;;8.60;99.90;;;;;;4990671;28;20056;-75
2023/11/16 00:45:31;;;;;;;8.57;1.52;;;8.50;99.90;;;;;;5014862;28;20103;-74
2023/11/16 00:47:57;;;;;;;9.15;1.15;;;8.60;99.90;;;;;;5006157;28;20395;-74
2023/11/16 00:50:23;;;;;;;8.38;1.55;;;8.60;99.90;;;;;;5015509;28;20373;-74
2023/11/16 00:52:48;;;;;;;9.57;1.30;;;8.60;99.90;;;;;;5005769;28;20492;-74
2023/11/16 00:55:15;;;;;;;10.27;1.55;;;8.60;99.90;;;;;;4996035;28;20136;-83
2023/11/16 00:57:44;;;;;;;8.18;1.40;;;8.60;99.90;;;;;;5004902;28;20053;-83
2023/11/16 01:00:11;;;;;;;7.68;1.23;;;8.70;99.90;;;;;;4997626;28;20052;-82
2023/11/16 01:02:37;;;;;;;8.15;1.38;;;8.70;99.90;;;;;;5010064;28;20045;-82
2023/11/16 01:05:04;;;;;;;8.65;1.55;;;8.70;99.90;;;;;;4989600;28;20396;-82
2023/11/16 01:07:30;;;;;;;13.18;2.03;;;8.70;99.90;;;;;;5004500;28;20056;-82
2023/11/16 01:09:56;;;;;;;9.90;1.73;;;8.60;99.90;;;;;;5014743;28;20080;-82
2023/11/16 01:12:25;;;;;;;12.30;1.63;;;8.70;99.90;;;;;;4984625;28;20140;-82
2023/11/16 01:14:59;;;;;;;9.90;1.55;;;8.60;99.90;;;;;;5005493;28;20042;-81
2023/11/16 01:17:32;;;;;;;11.00;1.98;;;8.60;99.90;;;;;;5003391;28;20049;-81
2023/11/16 01:20:00;;;;;;;10.23;1.38;;;8.60;99.90;;;;;;5008160;28;20570;-81
2023/11/16 01:22:29;;;;;;;9.52;1.60;;;8.60;99.90;;;;;;5010765;28;20123;-80
2023/11/16 01:24:55;;;;;;;9.15;1.50;;;8.60;99.90;;;;;;4997301;28;20041;-82
2023/11/16 01:27:29;;;;;;;15.40;1.52;;;8.60;99.90;;;;;;5002971;28;20057;-82
2023/11/16 01:29:55;;;;;;;10.27;1.70;;;8.60;99.90;;;;;;5009973;28;20875;-82
2023/11/16 01:32:21;;;;;;;8.55;1.38;;;8.60;99.90;;;;;;4988133;28;20052;-82
2023/11/16 01:34:47;;;;;;;7.75;1.50;;;8.60;99.90;;;;;;5011706;28;20053;-83
2023/11/16 01:37:13;;;;;;;6.57;1.70;;;8.60;99.90;;;;;;5027386;28;20117;-74
2023/11/16 01:39:39;;;;;;;9.73;2.03;;;8.60;99.90;;;;;;5009988;28;20071;-74
2023/11/16 01:42:06;;;;;;;9.23;1.35;;;8.50;99.90;;;;;;5011970;28;20400;-73
2023/11/16 01:44:32;;;;;;;8.23;1.48;;;8.60;99.90;;;;;;5010299;28;20057;-82
2023/11/16 01:46:58;;;;;;;8.68;1.60;;;8.50;99.90;;;;;;5012117;28;20041;-81
2023/11/16 01:49:24;;;;;;;11.43;1.33;;;8.50;99.90;;;;;;5006050;28;20046;-82
2023/11/16 01:51:55;;;;;;;9.90;1.67;;;8.50;99.90;;;;;;4994128;28;20389;-81
2023/11/16 01:54:22;;;;;;;8.82;1.20;;;8.50;99.90;;;;;;4990100;28;20041;-81
2023/11/16 01:56:50;;;;;;;12.30;1.88;;;8.40;99.90;;;;;;5009652;28;20401;-81
2023/11/16 01:59:19;;;;;;;8.80;1.45;;;8.40;99.90;;;;;;5001010;28;20079;-81
2023/11/16 02:01:46;;;;;;;10.05;1.70;;;8.40;99.90;;;;;;4989967;28;20072;-80
2023/11/16 02:04:12;;;;;;;7.75;1.67;;;8.30;99.90;;;;;;5009511;28;20310;-80
2023/11/16 02:06:41;;;;;;;9.73;1.65;;;8.30;99.90;;;;;;5008604;28;20045;-80
2023/11/16 02:09:07;;;;;;;9.32;1.40;;;8.30;99.90;;;;;;4988090;28;20428;-80
2023/11/16 02:11:33;;;;;;;10.93;1.70;;;8.30;99.90;;;;;;4991794;28;20056;-80
2023/11/16 02:13:59;;;;;;;10.95;1.67;;;8.30;99.90;;;;;;4996043;28;20033;-80
2023/11/16 02:16:24;;;;;;;7.05;1.20;;;8.20;99.90;;;;;;5003206;28;20041;-80
2023/11/16 02:18:52;;;;;;;7.22;1.20;;;8.20;99.90;;;;;;4992159;28;20034;-80
2023/11/16 02:21:17;;;;;;;10.45;1.58;;;8.20;99.90;;;;;;5009261;28;20224;-80
2023/11/16 02:23:43;;;;;;;10.65;1.98;;;8.10;99.90;;;;;;5004191;28;20557;-80
2023/11/16 02:26:10;;;;;;;7.00;1.15;;;8.10;99.90;;;;;;4996510;28;20040;-80
2023/11/16 02:28:36;;;;;;;10.40;1.30;;;8.00;99.90;;;;;;4986890;28;20050;-80
2023/11/16 02:31:02;;;;;;;8.00;1.48;;;8.00;99.90;;;;;;5010970;28;20159;-80
2023/11/16 02:33:28;;;;;;;7.07;1.38;;;8.00;99.90;;;;;;4990740;28;20253;-81
2023/11/16 02:35:54;;;;;;;8.05;1.27;;;7.90;99.90;;;;;;4990941;28;20505;-72
2023/11/16 02:38:20;;;;;;;7.65;1.23;;;7.90;99.90;;;;;;5013924;28;20048;-73
2023/11/16 02:40:49;;;;;;;9.10;1.27;;;7.90;99.90;;;;;;4994320;28;20037;-73
2023/11/16 02:43:15;;;;;;;8.73;1.10;;;7.80;99.90;;;;;;5010073;28;20663;-73
2023/11/16 02:45:41;;;;;;;17.08;1.60;;;7.80;99.90;;;;;;4997732;28;20123;-73
2023/11/16 02:48:07;;;;;;;6.10;1.30;;;7.80;99.90;;;;;;4991322;28;20051;-72
2023/11/16 02:50:33;;;;;;;7.90;0.98;;;7.70;99.90;;;;;;5004805;28;20056;-73
2023/11/16 02:52:58;;;;;;;6.18;1.23;;;7.70;99.90;;;;;;4988013;28;20394;-73
2023/11/16 02:55:24;;;;;;;7.85;1.27;;;7.60;99.90;;;;;;4991602;28;20190;-73
2023/11/16 02:57:51;;;;;;;9.98;1.83;;;7.60;99.90;;;;;;5008006;28;20037;-74
2023/11/16 03:00:24;;;;;;;9.05;1.27;;;7.60;99.90;;;;;;4989577;28;20046;-74
2023/11/16 03:02:50;;;;;;;9.70;1.48;;;7.60;99.90;;;;;;5008322;28;20389;-74
2023/11/16 03:05:21;;;;;;;7.10;1.10;;;7.50;99.90;;;;;;5009819;28;20064;-74
2023/11/16 03:07:51;;;;;;;5.25;0.80;;;7.50;99.90;;;;;;5005436;28;21328;-73
2023/11/16 03:10:20;;;;;;;5.97;0.90;;;7.50;99.90;;;;;;4983839;28;20448;-74
2023/11/16 03:12:45;;;;;;;10.60;1.38;;;7.40;99.90;;;;;;4990014;28;20046;-74
2023/11/16 03:15:13;;;;;;;4.70;1.00;;;7.40;99.90;;;;;;4989956;28;20175;-74
2023/11/16 03:17:46;;;;;;;6.95;1.20;;;7.40;99.90;;;;;;4983190;28;20042;-73
2023/11/16 03:20:17;;;;;;;6.22;1.02;;;7.30;99.90;;;;;;5001622;28;20064;-74
2023/11/16 03:22:46;;;;;;;6.88;1.17;;;7.30;99.90;;;;;;4989668;28;20538;-74
2023/11/16 03:25:12;;;;;;;9.63;1.38;;;7.30;99.90;;;;;;5001174;28;20046;-74
2023/11/16 03:27:38;;;;;;;9.85;1.25;;;7.20;99.90;;;;;;4992973;28;20377;-73
2023/11/16 03:30:04;;;;;;;9.38;1.35;;;7.20;99.90;;;;;;5003061;28;20512;-74
2023/11/16 03:32:30;;;;;;;7.53;1.38;;;7.10;99.90;;;;;;4993015;28;20048;-74
2023/11/16 03:34:56;;;;;;;6.00;1.45;;;7.10;99.90;;;;;;4996852;28;20041;-73
2023/11/16 03:37:22;;;;;;;3.67;1.00;;;7.00;99.90;;;;;;5001453;28;20060;-73
2023/11/16 03:39:48;;;;;;;7.07;1.27;;;7.00;99.90;;;;;;5008994;28;20045;-73
2023/11/16 03:42:13;;;;;;;9.25;1.40;;;6.90;99.90;;;;;;5005364;28;20034;-74
2023/11/16 03:44:40;;;;;;;8.60;1.20;;;6.90;99.90;;;;;;5007505;28;20045;-73
2023/11/16 03:47:06;;;;;;;5.53;0.80;;;6.80;99.90;;;;;;4992005;28;20050;-74
2023/11/16 03:49:32;;;;;;;9.43;1.15;;;6.80;99.90;;;;;;5010001;28;20561;-73
2023/11/16 03:51:58;;;;;;;8.48;1.17;;;6.70;99.90;;;;;;5007990;28;20053;-73
2023/11/16 03:54:24;;;;;;;7.03;1.77;;;6.70;99.90;;;;;;4995321;28;20057;-73
2023/11/16 03:56:52;;;;;;;8.55;1.42;;;6.60;99.90;;;;;;4984192;28;20128;-73
2023/11/16 03:59:23;;;;;;;6.93;1.15;;;6.60;99.90;;;;;;4975974;28;20061;-73
2023/11/16 04:01:50;;;;;;;5.28;1.20;;;6.60;99.90;;;;;;5004820;28;20045;-73
2023/11/16 04:04:17;;;;;;;6.72;1.30;;;6.50;99.90;;;;;;4992025;28;20504;-73
2023/11/16 04:06:43;;;;;;;6.57;1.05;;;6.60;99.90;;;;;;4998809;28;20104;-74
2023/11/16 04:09:09;;;;;;;9.68;1.38;;;6.50;99.90;;;;;;5008025;28;20045;-73
2023/11/16 04:11:42;;;;;;;8.95;1.45;;;6.50;99.90;;;;;;4992440;28;20041;-73
2023/11/16 04:14:10;;;;;;;6.25;1.30;;;6.50;99.90;;;;;;4987578;28;20046;-73
2023/11/16 04:16:36;;;;;;;5.85;1.10;;;6.40;99.90;;;;;;5003318;28;20041;-73
2023/11/16 04:19:04;;;;;;;6.88;1.17;;;6.50;99.90;;;;;;5004159;28;20103;-74
2023/11/16 04:21:31;;;;;;;8.15;1.40;;;6.40;99.90;;;;;;4989645;28;20068;-73
2023/11/16 04:23:57;;;;;;;7.30;1.30;;;6.40;99.90;;;;;;4987260;28;20049;-73
2023/11/16 04:26:23;;;;;;;6.85;1.08;;;6.30;99.90;;;;;;4985039;28;20432;-73
2023/11/16 04:28:51;;;;;;;8.07;1.25;;;6.30;99.90;;;;;;4999965;28;20056;-73
2023/11/16 04:31:19;;;;;;;4.47;0.80;;;6.30;99.90;;;;;;4988461;28;20382;-74
2023/11/16 04:33:47;;;;;;;4.78;0.88;;;6.30;99.90;;;;;;4987727;28;20060;-73
2023/11/16 04:36:17;;;;;;;8.13;1.17;;;6.20;99.90;;;;;;4995835;28;20416;-73
2023/11/16 04:38:43;;;;;;;9.00;1.48;;;6.20;99.90;;;;;;4999151;28;20407;-73
2023/11/16 04:41:09;;;;;;;6.38;1.45;;;6.20;99.90;;;;;;5024635;28;20117;-73
2023/11/16 04:43:44;;;;;;;7.03;1.25;;;6.20;99.90;;;;;;5005134;28;20496;-73
2023/11/16 04:46:11;;;;;;;4.97;0.93;;;6.10;99.90;;;;;;4990446;28;20057;-73
2023/11/16 04:48:43;;;;;;;4.60;1.13;;;6.10;99.90;;;;;;4978276;28;20054;-73
2023/11/16 04:51:11;;;;;;;10.40;1.20;;;6.00;99.90;;;;;;5003764;28;20048;-73
2023/11/16 04:53:37;;;;;;;5.70;1.02;;;6.00;99.90;;;;;;5021365;28;20049;-74
2023/11/16 04:56:05;;;;;;;5.15;1.20;;;6.00;99.90;;;;;;4982632;28;20049;-73
2023/11/16 04:58:31;;;;;;;8.73;1.25;;;5.90;99.90;;;;;;5002338;28;20412;-73
2023/11/16 05:00:57;;;;;;;7.45;1.13;;;5.90;99.90;;;;;;5004544;28;20572;-74
2023/11/16 05:03:22;;;;;;;10.05;1.30;;;5.80;99.90;;;;;;5000701;28;20057;-73
2023/11/16 05:05:48;;;;;;;7.82;1.20;;;5.80;99.90;;;;;;4991266;28;21459;-73
2023/11/16 05:08:14;;;;;;;8.02;1.30;;;5.80;99.90;;;;;;5010158;28;20476;-80
2023/11/16 05:10:40;;;;;;;7.28;1.38;;;5.80;99.90;;;;;;4994038;28;20045;-80
2023/11/16 05:13:06;;;;;;;4.78;0.70;;;5.70;99.90;;;;;;4992730;28;20049;-80
2023/11/16 05:15:31;;;;;;;11.90;1.40;;;5.70;99.90;;;;;;5012187;28;20139;-81
2023/11/16 05:17:57;;;;;;;5.95;1.10;;;5.70;99.90;;;;;;5008645;28;20045;-81
2023/11/16 05:20:23;;;;;;;9.18;1.55;;;5.70;99.90;;;;;;5006290;28;20048;-81
2023/11/16 05:22:49;;;;;;;6.50;1.00;;;5.60;99.90;;;;;;5006280;28;20373;-81
2023/11/16 05:25:15;;;;;;;6.10;1.10;;;5.60;99.90;;;;;;5009277;28;20057;-81
2023/11/16 05:27:41;;;;;;;5.97;0.88;;;5.60;99.90;;;;;;4999269;28;20500;-81
2023/11/16 05:30:08;;;;;;;3.53;0.82;;;5.60;99.90;;;;;;4993492;28;20037;-81
2023/11/16 05:32:34;;;;;;;5.40;1.10;;;5.50;99.90;;;;;;5005539;28;20060;-81
2023/11/16 05:34:59;;;;;;;7.18;1.10;;;5.50;99.90;;;;;;4989602;28;20128;-81
2023/11/16 05:37:25;;;;;;;6.75;1.20;;;5.50;99.90;;;;;;5004022;28;20042;-81
2023/11/16 05:39:51;;;;;;;7.53;1.27;;;5.50;99.90;;;;;;4997980;28;20572;-81
2023/11/16 05:42:17;;;;;;;7.25;1.50;;;5.40;99.90;;;;;;5006055;28;20045;-81
2023/11/16 05:44:44;;;;;;;4.95;1.15;;;5.40;99.90;;;;;;5002143;28;20029;-81
2023/11/16 05:47:11;;;;;;;5.95;1.10;;;5.40;99.90;;;;;;4997918;28;20402;-81
2023/11/16 05:49:37;;;;;;;9.90;1.45;;;5.30;99.90;;;;;;5005283;28;20049;-80
2023/11/16 05:52:06;;;;;;;9.30;1.95;;;5.30;99.90;;;;;;4991618;28;20105;-74
2023/11/16 05:54:32;;;;;;;5.90;1.10;;;5.20;99.90;;;;;;5010387;28;20547;-74
2023/11/16 05:56:58;;;;;;;7.97;1.00;;;5.20;99.90;;;;;;4992246;28;20142;-74
2023/11/16 05:59:24;;;;;;;7.00;1.30;;;5.20;99.90;;;;;;5008746;28;20089;-74
2023/11/16 06:01:49;;;;;;;8.25;1.50;;;5.20;99.90;;;;;;4990432;28;20072;-75
2023/11/16 06:04:15;;;;;;;10.38;1.88;;;5.10;99.90;;;;;;4990165;28;20388;-74
2023/11/16 06:06:41;;;;;;;7.00;1.27;;;5.10;99.90;;;;;;4995703;28;20912;-74
2023/11/16 06:09:07;;;;;;;6.28;1.42;;;5.00;99.90;;;;;;4996083;28;20259;-74
2023/11/16 06:11:33;;;;;;;8.43;1.55;;;5.00;99.90;;;;;;4993788;28;20049;-74
2023/11/16 06:13:59;;;;;;;12.43;1.40;;;4.90;99.90;;;;;;5008006;28;20038;-74
2023/11/16 06:16:26;;;;;;;6.22;1.40;;;4.90;99.90;;;;;;4996766;28;20084;-74
2023/11/16 06:18:57;;;;;;;7.97;1.65;;;4.80;99.90;;;;;;4986317;28;20045;-74
2023/11/16 06:21:24;;;;;;;5.13;1.30;;;4.80;99.90;;;;;;4990997;28;20563;-74
2023/11/16 06:23:50;;;;;;;7.47;1.40;;;4.70;99.90;;;;;;4992686;28;20037;-81
2023/11/16 06:26:16;;;;;;;7.97;1.35;;;4.80;99.90;;;;;;5006438;28;20412;-74
2023/11/16 06:28:41;;;;;;;7.30;1.50;;;4.70;99.90;;;;;;4991349;28;20049;-74
2023/11/16 06:31:07;;;;;;;6.90;2.13;;;4.70;99.90;;;;;;4994959;28;20097;-74
2023/11/16 06:33:33;;;;;;;8.73;2.72;;;4.60;99.90;;;;;;4986955;28;20136;-74
2023/11/16 06:35:59;;;;;;;8.63;3.13;;;4.70;99.90;;;;;;4991166;28;20172;-74
2023/11/16 06:38:29;;;;;;;14.77;5.22;;;4.60;99.90;;;;;;4992414;28;20140;-74
2023/11/16 06:41:05;;;;;;;;;;;4.60;99.90;;;;;;4989469;28;20447;-74
2023/11/16 06:43:31;;;;;;;7.30;3.42;;;4.50;99.90;;;;;;5004335;28;19921;-74
2023/11/16 06:46:02;;;;;;;4.55;3.45;;;4.60;99.90;;;;;;5003206;28;20046;-74
2023/11/16 06:48:30;;;;;;;7.35;2.95;;;4.50;99.90;;;;;;5002543;28;20050;-74
2023/11/16 06:50:58;;;;;;;6.57;3.15;;;4.50;99.90;;;;;;4988282;28;20048;-74
2023/11/16 06:53:25;;;;;;;5.90;3.40;;;4.50;99.90;;;;;;5006318;28;20496;-73
2023/11/16 06:55:52;;;;;;;6.15;2.60;;;4.50;99.90;;;;;;5000400;28;20041;-73
2023/11/16 06:58:22;;;;;;;4.95;2.13;;;4.50;99.90;;;;;;5006097;28;20436;-73
2023/11/16 07:00:50;;;;;;;9.77;2.42;;;4.40;99.90;;;;;;5004599;28;20095;-73
2023/11/16 07:03:16;;;;;;;4.10;2.10;;;4.40;99.90;;;;;;4984518;28;20103;-73
2023/11/16 07:05:42;;;;;;;4.78;2.00;;;4.30;99.90;;;;;;5006512;28;20053;-73
2023/11/16 07:08:09;;;;;;;4.60;1.73;;;4.30;99.90;;;;;;5005549;28;20453;-74
2023/11/16 07:10:36;;;;;;;7.25;2.63;;;4.30;99.90;;;;;;4992013;28;20053;-75
2023/11/16 07:13:03;;;;;;;4.43;1.98;;;4.30;99.90;;;;;;5005210;28;20038;-75
2023/11/16 07:15:31;;;;;;;6.47;2.38;;;4.30;99.90;;;;;;4993401;28;20555;-75
2023/11/16 07:17:57;;;;;;;6.32;2.50;;;4.30;99.90;;;;;;4988996;28;20048;-76
2023/11/16 07:20:23;;;;;;;8.48;2.70;;;4.30;99.90;;;;;;4985151;28;20049;-75
2023/11/16 07:22:48;;;;;;;8.02;2.20;;;4.20;99.90;;;;;;4992015;28;20045;-75
2023/11/16 07:25:20;;;;;;;5.30;1.95;;;4.30;99.90;;;;;;4987128;28;20103;-76
2023/11/16 07:27:46;;;;;;;6.43;1.60;;;4.30;99.90;;;;;;5005279;28;20488;-76
2023/11/16 07:30:12;;;;;;;3.60;1.38;;;4.40;99.90;;;;;;5000915;28;20436;-77
2023/11/16 07:32:38;;;;;;;6.32;1.88;;;4.30;99.90;;;;;;4986438;28;20079;-76
2023/11/16 07:35:14;;;;;;;4.90;1.30;;;4.30;99.90;;;;;;5004452;28;20041;-76
2023/11/16 07:37:50;;;;;;;4.40;1.42;;;4.40;99.90;;;;;;4988376;28;20080;-76
2023/11/16 07:40:20;;;;;;;5.85;1.23;;;4.40;99.90;;;;;;5012957;28;20052;-76
2023/11/16 07:42:47;;;;;;;4.82;1.30;;;4.40;99.90;;;;;;4993518;28;20041;-77
2023/11/16 07:45:16;;;;;;;7.07;1.75;;;4.50;99.90;;;;;;4991802;28;20045;-77
2023/11/16 07:47:44;;;;;;;8.32;2.58;;;4.50;99.90;;;;;;5007362;28;20095;-77
2023/11/16 07:50:12;;;;;;;6.43;2.22;;;4.50;99.90;;;;;;4987678;28;20088;-76
2023/11/16 07:52:46;;;;;;;5.57;2.03;;;4.50;99.90;;;;;;4989358;28;20045;-75
2023/11/16 07:55:18;;;;;;;6.25;1.42;;;4.40;99.90;;;;;;4986054;28;20099;-75
2023/11/16 07:57:49;;;;;;;4.90;1.60;;;4.40;99.90;;;;;;5004913;28;20081;-75
2023/11/16 08:00:33;;;;;;;9.68;3.33;;;4.50;99.90;;;;;;5003415;28;20045;-75
2023/11/16 08:05:44;;;;;;;8.80;3.50;;;4.50;99.90;;;;;;5003692;28;20052;-75
2023/11/16 08:08:14;;;;;;;5.97;2.28;;;4.60;99.90;;;;;;5007052;28;20092;-75
2023/11/16 08:10:44;;;;;;;7.53;2.72;;;4.60;99.90;;;;;;5003749;28;20107;-75
2023/11/16 08:13:11;;;;;;;9.93;2.80;;;4.60;99.90;;;;;;4991527;28;20045;-75
2023/11/16 08:15:40;;;;;;;5.95;2.97;;;4.60;99.90;;;;;;5002275;28;20052;-76
2023/11/16 08:18:06;;;;;;;7.28;3.10;;;4.70;99.90;;;;;;4989333;28;20033;-76
2023/11/16 08:20:33;;;;;;;9.55;3.15;;;4.80;99.90;;;;;;4977981;28;20056;-80
2023/11/16 08:22:59;;;;;;;6.47;2.95;;;4.70;99.90;;;;;;4994858;28;20515;-80
2023/11/16 08:25:28;;;;;;;6.80;2.85;;;4.80;99.90;;;;;;5004646;28;20156;-80
2023/11/16 08:27:55;;;;;;;5.60;2.20;;;4.90;99.90;;;;;;4989836;28;20056;-79
2023/11/16 08:30:22;;;;;;;5.32;2.33;;;4.90;99.90;;;;;;5009427;28;20766;-80
2023/11/16 08:32:48;;;;;;;4.63;1.95;;;5.00;99.90;;;;;;5008172;28;20844;-79
2023/11/16 08:35:14;;;;;;;5.97;2.55;;;5.00;99.90;;;;;;4988847;28;20049;-79
2023/11/16 08:37:41;;;;;;;6.35;3.03;;;5.00;99.90;;;;;;5005309;28;20179;-80
2023/11/16 08:40:13;;;;;;;8.15;3.40;;;5.10;99.90;;;;;;5006348;28;20037;-76
2023/11/16 08:42:42;;;;;;;7.90;4.75;;;5.20;99.90;;;;;;4988597;28;20040;-76
2023/11/16 08:45:24;;;;;;;6.65;4.07;;;5.20;99.90;;;;;;5004046;28;20076;-76
2023/11/16 08:47:59;;;;;;;8.52;4.03;;;5.20;99.90;;;;;;4985370;28;20138;-76
2023/11/16 08:50:25;;;;;;;10.10;6.28;;;5.30;99.90;;;;;;5004771;28;20053;-79
2023/11/16 08:52:52;;;;;;;8.45;5.25;;;5.30;99.90;;;;;;4982983;28;20048;-79
2023/11/16 08:55:23;;;;;;;8.68;5.60;;;5.40;99.90;;;;;;4996380;28;20048;-76
2023/11/16 08:57:56;;;;;;;8.15;4.22;;;5.40;99.90;;;;;;5002664;28;20394;-76
2023/11/16 09:00:28;;;;;;;6.72;3.13;;;5.50;99.90;;;;;;4988908;28;20041;-76
2023/11/16 09:02:57;;;;;;;9.95;3.25;;;5.50;99.90;;;;;;4987605;28;20460;-76
2023/11/16 09:05:24;;;;;;;9.73;3.13;;;5.60;99.90;;;;;;5000130;28;20054;-76
2023/11/16 09:07:54;;;;;;;7.32;2.92;;;5.60;99.90;;;;;;4985760;28;20073;-75
2023/11/16 09:10:21;;;;;;;6.53;2.65;;;5.70;99.90;;;;;;5002842;28;20107;-75
2023/11/16 09:12:48;;;;;;;7.72;2.70;;;5.70;99.90;;;;;;4988210;28;20453;-75
2023/11/16 09:15:16;;;;;;;6.75;2.47;;;5.70;99.90;;;;;;4999875;28;20787;-75
2023/11/16 09:17:45;;;;;;;9.70;3.15;;;5.80;99.90;;;;;;4987678;28;20468;-75
2023/11/16 09:20:13;;;;;;;6.93;2.75;;;5.80;99.90;;;;;;4987148;28;20049;-75
2023/11/16 09:22:42;;;;;;;8.75;2.70;;;5.80;99.90;;;;;;4993910;28;20492;-75
2023/11/16 09:25:15;;;;;;;7.05;2.55;;;5.90;99.90;;;;;;5005762;28;20049;-75
2023/11/16 09:27:42;;;;;;;7.82;2.60;;;5.90;99.90;;;;;;5000114;28;20128;-75
2023/11/16 09:30:14;;;;;;;8.27;2.60;;;6.00;99.90;;;;;;4991257;28;20045;-75
2023/11/16 09:32:43;;;;;;;6.85;2.65;;;6.00;99.90;;;;;;5000904;28;20128;-75
2023/11/16 09:35:14;;;;;;;9.30;2.90;;;6.10;99.90;;;;;;4988399;28;20368;-75
2023/11/16 09:37:46;;;;;;;7.72;2.53;;;6.10;99.90;;;;;;4988879;28;20049;-75
2023/11/16 09:40:21;;;;;;;6.40;2.20;;;6.20;99.90;;;;;;5005776;28;20045;-75
2023/11/16 09:42:48;;;;;;;9.00;3.13;;;6.20;99.90;;;;;;4994749;28;20049;-75
2023/11/16 09:45:20;;;;;;;6.30;2.53;;;6.30;99.90;;;;;;5008623;28;20048;-75
2023/11/16 09:47:53;;;;;;;4.88;2.25;;;6.30;99.90;;;;;;4990991;28;20092;-76
2023/11/16 09:50:21;;;;;;;9.60;2.90;;;6.40;99.90;;;;;;5008202;28;20051;-76
2023/11/16 09:52:48;;;;;;;9.00;2.70;;;6.60;99.90;;;;;;5016527;28;20051;-75
2023/11/16 09:55:17;;;;;;;11.20;2.58;;;6.60;99.90;;;;;;4989505;28;20407;-75
2023/11/16 09:57:45;;;;;;;9.80;2.78;;;6.70;99.90;;;;;;5011872;28;20053;-75
2023/11/16 10:00:15;;;;;;;7.30;2.75;;;6.80;99.90;;;;;;4990842;28;20386;-75
2023/11/16 10:02:46;;;;;;;7.75;2.63;;;6.70;99.90;;;;;;5008499;28;20085;-75
2023/11/16 10:05:20;;;;;;;6.78;2.75;;;6.80;99.90;;;;;;5004396;28;20432;-75
2023/11/16 10:07:51;;;;;;;5.53;2.72;;;6.80;99.90;;;;;;5004445;28;20046;-76
2023/11/16 10:10:18;;;;;;;7.53;2.80;;;6.80;99.90;;;;;;4995373;28;20048;-76
2023/11/16 10:12:49;;;;;;;7.00;2.72;;;6.80;99.90;;;;;;5006392;28;20053;-76
2023/11/16 10:15:20;;;;;;;10.52;2.83;;;6.90;99.90;;;;;;4991426;28;20041;-76
2023/11/16 10:17:52;;;;;;;9.05;2.80;;;6.90;99.90;;;;;;4989377;28;20049;-76
2023/11/16 10:20:20;;;;;;;9.95;2.53;;;6.90;99.90;;;;;;5004005;28;20041;-76
2023/11/16 10:22:47;;;;;;;9.15;2.42;;;6.90;99.90;;;;;;5009729;28;20095;-75
2023/11/16 10:25:14;;;;;;;7.30;1.85;;;6.90;99.90;;;;;;4988999;28;20037;-76
2023/11/16 10:27:44;;;;;;;12.73;2.30;;;7.00;99.90;;;;;;5006936;28;20061;-76
2023/11/16 10:30:15;;;;;;;7.72;2.10;;;7.00;99.90;;;;;;4986588;28;20073;-77
2023/11/16 10:32:42;;;;;;;7.75;2.50;;;7.00;99.90;;;;;;5007135;28;20077;-75
2023/11/16 10:35:23;;;;;;;7.28;2.33;;;7.00;99.90;;;;;;5002265;28;20496;-76
2023/11/16 10:37:50;;;;;;;7.00;2.42;;;7.10;99.90;;;;;;4997225;28;20190;-76
2023/11/16 10:40:17;;;;;;;6.40;2.20;;;7.00;99.90;;;;;;5009114;28;20050;-76
2023/11/16 10:42:43;;;;;;;9.32;2.40;;;7.00;99.90;;;;;;4989470;28;20095;-77
2023/11/16 10:45:15;;;;;;;16.05;12.45;;;6.90;99.90;;;;;;5004311;28;20033;-78
2023/11/16 10:47:43;;;;;;;8.55;5.13;;;7.00;99.90;;;;;;4992110;28;20045;-77
2023/11/16 10:50:10;;;;;;;8.40;3.03;;;7.00;99.90;;;;;;5004179;28;20045;-78
2023/11/16 10:52:39;;;;;;;7.90;3.00;;;7.00;99.90;;;;;;5007903;28;20055;-78
2023/11/16 10:55:13;;;;;;;6.25;3.00;;;7.00;99.90;;;;;;4996230;28;20137;-77
2023/11/16 10:57:40;;;;;;;7.40;2.38;;;7.10;99.90;;;;;;4991329;28;20056;-77
2023/11/16 11:00:16;;;;;;;7.63;2.38;;;7.10;99.90;;;;;;5009478;28;20144;-78
2023/11/16 11:02:47;;;;;;;9.35;2.38;;;7.10;99.90;;;;;;4993874;28;20048;-78
2023/11/16 11:05:19;;;;;;;9.15;2.38;;;7.10;99.90;;;;;;5005565;28;20515;-77
2023/11/16 11:07:57;;;;;;;8.73;2.25;;;7.20;99.90;;;;;;5006653;28;20042;-78
2023/11/16 11:10:27;;;;;;;5.95;1.73;;;7.20;99.90;;;;;;5005583;28;20061;-78
2023/11/16 11:12:56;;;;;;;;;;;7.20;99.90;;;;;;5019999;28;20045;-78
2023/11/16 11:15:29;;;;;;;6.85;1.60;;;7.20;99.90;;;;;;5008447;28;19967;-78
2023/11/16 11:17:57;;;;;;;4.28;1.70;;;7.20;99.90;;;;;;4986366;28;20037;-78
2023/11/16 11:20:43;;;;;;;8.38;1.95;;;7.20;99.90;;;;;;4991025;28;20464;-78
2023/11/16 11:23:15;;;;;;;7.95;1.60;;;7.20;99.90;;;;;;5007661;28;20421;-78
2023/11/16 11:25:42;;;;;;;5.50;1.80;;;7.20;99.90;;;;;;4992231;28;20131;-78
2023/11/16 11:28:14;;;;;;;5.72;1.98;;;7.20;99.90;;;;;;5007586;28;20046;-78
2023/11/16 11:30:50;;;;;;;6.13;1.95;;;7.30;99.90;;;;;;5003815;28;20049;-78
2023/11/16 11:33:35;;;;;;;4.50;1.95;;;7.30;99.90;;;;;;5005098;28;20416;-78
2023/11/16 11:36:10;;;;;;;7.65;2.42;;;7.40;99.90;;;;;;4986540;28;20041;-78
2023/11/16 11:38:38;;;;;;;6.18;2.05;;;7.30;99.90;;;;;;4989138;28;20046;-78
2023/11/16 11:41:12;;;;;;;5.22;1.58;;;7.30;99.90;;;;;;4989682;28;20124;-78
2023/11/16 11:43:42;;;;;;;4.90;1.63;;;7.40;99.90;;;;;;5001007;28;20059;-78
2023/11/16 11:46:19;;;;;;;7.38;1.92;;;7.40;99.90;;;;;;5009468;28;20033;-78
2023/11/16 11:48:46;;;;;;;5.88;1.70;;;7.40;99.90;;;;;;5018901;28;20045;-78
2023/11/16 11:51:12;;;;;;;4.88;1.73;;;7.50;99.90;;;;;;5000622;28;20148;-79
2023/11/16 11:53:38;;;;;;;9.05;1.80;;;7.60;99.90;;;;;;5002250;28;20125;-78
2023/11/16 11:56:11;;;;;;;8.05;2.03;;;7.60;99.90;;;;;;5004536;28;20045;-78
2023/11/16 11:58:38;;;;;;;6.00;1.77;;;7.60;99.90;;;;;;4989544;28;20045;-78
2023/11/16 12:01:08;;;;;;;8.60;2.05;;;7.60;99.90;;;;;;4988755;28;20061;-78
2023/11/16 12:03:35;;;;;;;6.63;1.90;;;7.60;99.90;;;;;;5005054;28;20492;-78
2023/11/16 12:06:02;;;;;;;7.13;1.58;;;7.60;99.90;;;;;;5014545;28;20484;-78
2023/11/16 12:08:38;;;;;;;6.10;1.70;;;7.60;99.90;;;;;;5000764;28;20064;-78
2023/11/16 12:11:04;;;;;;;9.02;1.80;;;7.60;99.90;;;;;;4990673;28;20408;-78
2023/11/16 12:13:31;;;;;;;5.95;1.70;;;7.60;99.90;;;;;;5008294;28;20049;-78
2023/11/16 12:15:57;;;;;;;5.80;1.90;;;7.70;99.90;;;;;;5018089;28;20545;-78
2023/11/16 12:18:23;;;;;;;5.18;1.50;;;7.70;99.90;;;;;;5003707;28;20088;-78
2023/11/16 12:20:54;;;;;;;5.63;1.70;;;7.80;99.90;;;;;;5009538;28;20374;-78
2023/11/16 12:23:19;;;;;;;6.38;1.98;;;7.80;99.90;;;;;;4993350;28;20044;-79
2023/11/16 12:25:46;;;;;;;5.00;2.13;;;7.90;99.90;;;;;;4988401;28;20646;-77
2023/11/16 12:28:12;;;;;;;5.38;2.60;;;7.90;99.90;;;;;;5001835;28;20041;-77
2023/11/16 12:30:39;;;;;;;6.55;2.10;;;8.00;99.90;;;;;;4990719;28;20128;-77
2023/11/16 12:33:06;;;;;;;6.05;2.35;;;8.00;99.90;;;;;;4987180;28;20570;-77
2023/11/16 12:35:37;;;;;;;8.43;2.58;;;8.00;99.90;;;;;;5005410;28;20110;-77
2023/11/16 12:38:04;;;;;;;6.68;2.47;;;8.00;99.90;;;;;;5002879;28;20720;-77
2023/11/16 12:40:30;;;;;;;5.22;2.05;;;8.00;99.90;;;;;;5011236;28;20049;-77
2023/11/16 12:42:56;;;;;;;6.75;2.05;;;8.00;99.90;;;;;;5007535;28;20370;-77
2023/11/16 12:45:22;;;;;;;7.22;2.30;;;8.10;99.90;;;;;;5003072;28;20052;-77
2023/11/16 12:47:48;;;;;;;6.15;2.28;;;8.00;99.90;;;;;;5003163;28;20054;-77
2023/11/16 12:50:16;;;;;;;7.22;2.10;;;8.00;99.90;;;;;;4988225;28;20484;-78
2023/11/16 12:52:41;;;;;;;8.85;2.20;;;8.10;99.90;;;;;;5006196;28;20212;-77
2023/11/16 12:55:10;;;;;;;7.80;2.22;;;8.00;99.90;;;;;;5009352;28;20036;-77
2023/11/16 12:57:46;;;;;;;6.50;2.45;;;8.10;99.90;;;;;;5005485;28;20053;-78
2023/11/16 13:00:12;;;;;;;10.27;2.70;;;8.10;99.90;;;;;;5006064;28;20590;-77
2023/11/16 13:02:38;;;;;;;10.88;2.92;;;8.00;99.90;;;;;;5002896;28;20088;-80